Time;durP1;ratioP1;P1;durP2;ratioP2;P2;SDS_P1;SDS_P2;PMS_P1;PMS_P2;Temp;Humidity;BMP_temperature;BMP_pressure;BME280_temperature;BME280_humidity;BME280_pressure;Samples;Min_cycle;Max_cycle;Signal;HPM_P1;HPM_P2
2023/01/20 00:01:37;;;;;;;21.10;12.90;;;0.60;99.90;;;;;;5010926;28;20129;-72
2023/01/20 00:04:05;;;;;;;19.88;12.45;;;0.60;99.90;;;;;;5010524;28;20077;-72
2023/01/20 00:06:32;;;;;;;21.45;12.65;;;0.60;99.90;;;;;;4994533;28;20563;-72
2023/01/20 00:09:01;;;;;;;20.92;12.85;;;0.60;99.90;;;;;;5006600;28;20042;-72
2023/01/20 00:11:29;;;;;;;22.65;12.65;;;0.70;99.90;;;;;;5003138;28;20411;-72
2023/01/20 00:13:59;;;;;;;18.40;12.70;;;0.60;99.90;;;;;;5010304;28;20408;-71
2023/01/20 00:16:28;;;;;;;24.42;13.10;;;0.60;99.90;;;;;;5018807;28;20038;-72
2023/01/20 00:18:55;;;;;;;23.70;12.63;;;0.60;99.90;;;;;;5010424;28;20408;-72
2023/01/20 00:21:22;;;;;;;20.77;12.98;;;0.60;99.90;;;;;;5009771;28;20038;-73
2023/01/20 00:23:50;;;;;;;20.75;13.52;;;0.70;99.90;;;;;;5011156;28;20499;-71
2023/01/20 00:26:20;;;;;;;21.95;13.50;;;0.70;99.90;;;;;;5010466;28;20385;-71
2023/01/20 00:28:48;;;;;;;22.35;12.43;;;0.70;99.90;;;;;;5009506;28;20137;-71
2023/01/20 00:31:22;;;;;;;25.33;13.25;;;0.70;99.90;;;;;;5009386;28;20042;-72
2023/01/20 00:33:51;;;;;;;21.58;13.57;;;0.70;99.90;;;;;;5009539;28;20077;-72
2023/01/20 00:36:20;;;;;;;20.65;12.85;;;0.70;99.90;;;;;;5011009;28;20133;-72
2023/01/20 00:38:47;;;;;;;21.23;13.63;;;0.70;99.90;;;;;;4993331;28;20057;-71
2023/01/20 00:41:15;;;;;;;24.27;13.57;;;0.80;99.90;;;;;;5010601;28;20516;-72
2023/01/20 00:43:43;;;;;;;20.83;12.68;;;0.80;99.90;;;;;;5010799;28;20087;-72
2023/01/20 00:46:11;;;;;;;22.60;13.27;;;0.70;99.90;;;;;;5010635;28;20129;-72
2023/01/20 00:48:38;;;;;;;23.63;13.65;;;0.70;99.90;;;;;;5009587;28;20463;-71
2023/01/20 00:51:07;;;;;;;26.95;14.25;;;0.70;99.90;;;;;;4993582;28;20050;-72
2023/01/20 00:53:35;;;;;;;21.40;13.70;;;0.70;99.90;;;;;;5011161;28;20046;-71
2023/01/20 00:56:02;;;;;;;23.83;13.77;;;0.70;99.90;;;;;;4993457;28;20463;-71
2023/01/20 00:58:30;;;;;;;22.85;14.18;;;0.70;99.90;;;;;;4977436;28;20386;-73
2023/01/20 01:00:57;;;;;;;21.80;12.98;;;0.70;99.90;;;;;;5009000;28;20034;-71
2023/01/20 01:03:28;;;;;;;21.83;13.35;;;0.70;99.90;;;;;;4986870;28;20547;-71
2023/01/20 01:06:08;;;;;;;20.85;14.25;;;0.70;99.90;;;;;;5022052;28;20129;-72
2023/01/20 01:08:35;;;;;;;26.60;14.57;;;0.70;99.90;;;;;;5009516;28;20062;-71
2023/01/20 01:11:03;;;;;;;22.17;12.90;;;0.70;99.90;;;;;;5010753;28;20379;-72
2023/01/20 01:13:31;;;;;;;24.00;14.52;;;0.60;99.90;;;;;;5007867;28;20166;-71
2023/01/20 01:15:59;;;;;;;22.98;13.55;;;0.60;99.90;;;;;;5008077;28;20470;-71
2023/01/20 01:18:27;;;;;;;32.17;18.02;;;0.60;99.90;;;;;;5013266;28;20046;-71
2023/01/20 01:20:54;;;;;;;22.05;14.00;;;0.70;99.90;;;;;;5012659;28;20100;-72
2023/01/20 01:23:21;;;;;;;22.30;14.13;;;0.70;99.90;;;;;;5012928;28;20056;-72
2023/01/20 01:25:49;;;;;;;24.48;13.85;;;0.70;99.90;;;;;;5013483;28;20481;-72
2023/01/20 01:28:16;;;;;;;21.08;12.93;;;0.70;99.90;;;;;;5012485;28;20123;-71
2023/01/20 01:30:43;;;;;;;23.42;13.77;;;0.70;99.90;;;;;;5011687;28;20464;-72
2023/01/20 01:33:11;;;;;;;23.92;14.43;;;0.70;99.90;;;;;;5012312;28;20034;-70
2023/01/20 01:35:38;;;;;;;23.33;13.95;;;0.70;99.90;;;;;;5007014;28;20061;-72
2023/01/20 01:38:05;;;;;;;24.67;14.15;;;0.70;99.90;;;;;;4994596;28;20062;-72
2023/01/20 01:40:33;;;;;;;24.02;14.10;;;0.70;99.90;;;;;;5012132;28;20386;-71
2023/01/20 01:43:01;;;;;;;21.08;13.63;;;0.70;99.90;;;;;;5014227;28;20560;-72
2023/01/20 01:45:31;;;;;;;26.40;14.93;;;0.70;99.90;;;;;;5013451;28;20484;-72
2023/01/20 01:48:06;;;;;;;27.83;14.43;;;0.70;99.90;;;;;;5013871;28;20046;-72
2023/01/20 01:51:05;;;;;;;26.73;15.15;;;0.70;99.90;;;;;;4995933;28;20412;-71
2023/01/20 01:53:42;;;;;;;26.15;14.85;;;0.80;99.90;;;;;;5008210;28;20492;-71
2023/01/20 01:56:10;;;;;;;23.58;14.82;;;0.80;99.90;;;;;;5013432;28;20050;-73
2023/01/20 01:58:42;;;;;;;25.60;15.20;;;0.80;99.90;;;;;;5013813;28;20061;-71
2023/01/20 02:01:10;;;;;;;24.23;14.88;;;0.80;99.90;;;;;;5013456;28;20213;-71
2023/01/20 02:03:48;;;;;;;25.67;15.18;;;0.80;99.90;;;;;;5013470;28;20042;-71
2023/01/20 02:06:17;;;;;;;25.17;14.00;;;0.80;99.90;;;;;;5012776;28;20125;-71
2023/01/20 02:08:45;;;;;;;27.17;14.65;;;0.80;99.90;;;;;;5013514;28;20431;-71
2023/01/20 02:11:12;;;;;;;25.95;15.52;;;0.80;99.90;;;;;;5011711;28;20042;-72
2023/01/20 02:13:39;;;;;;;23.25;14.48;;;0.80;99.90;;;;;;5013015;28;20088;-72
2023/01/20 02:16:15;;;;;;;26.77;15.18;;;0.80;99.90;;;;;;5010313;28;20051;-71
2023/01/20 02:19:11;;;;;;;26.08;15.20;;;0.80;99.90;;;;;;5004609;28;20050;-71
2023/01/20 02:21:45;;;;;;;26.60;15.57;;;0.70;99.90;;;;;;5008883;28;20477;-73
2023/01/20 02:24:21;;;;;;;28.02;15.82;;;0.70;99.90;;;;;;5008527;28;20042;-71
2023/01/20 02:26:56;;;;;;;28.63;16.98;;;0.80;99.90;;;;;;4984523;28;20448;-72
2023/01/20 02:29:51;;;;;;;24.70;15.23;;;0.70;99.90;;;;;;5006908;28;20050;-72
2023/01/20 02:32:40;;;;;;;24.48;15.00;;;0.70;99.90;;;;;;5011549;28;20516;-72
2023/01/20 02:35:14;;;;;;;25.67;15.50;;;0.70;99.90;;;;;;5022353;28;20054;-72
2023/01/20 02:37:57;;;;;;;26.27;15.77;;;0.60;99.90;;;;;;5008297;28;20075;-71
2023/01/20 02:40:29;;;;;;;27.42;15.88;;;0.60;99.90;;;;;;5010060;28;20459;-72
2023/01/20 02:42:59;;;;;;;;;;;0.70;99.90;;;;;;5009731;28;20045;-72
2023/01/20 02:45:50;;;;;;;25.55;15.65;;;0.70;99.90;;;;;;5009023;28;19929;-72
2023/01/20 02:48:32;;;;;;;30.02;15.93;;;0.60;99.90;;;;;;5010497;28;20373;-72
2023/01/20 02:51:15;;;;;;;27.75;15.85;;;0.60;99.90;;;;;;5012580;28;20064;-72
2023/01/20 02:53:51;;;;;;;26.33;15.73;;;0.70;99.90;;;;;;5012685;28;20042;-72
2023/01/20 02:56:24;;;;;;;24.58;15.45;;;0.70;99.90;;;;;;5011418;28;20481;-73
2023/01/20 02:59:00;;;;;;;27.30;15.70;;;0.70;99.90;;;;;;4994406;28;20056;-72
2023/01/20 03:01:39;;;;;;;25.05;15.68;;;0.80;99.90;;;;;;5011615;28;20046;-73
2023/01/20 03:04:09;;;;;;;23.65;15.45;;;0.70;99.90;;;;;;4994344;28;20053;-73
2023/01/20 03:06:43;;;;;;;24.75;15.70;;;0.60;99.90;;;;;;5011573;28;20049;-73
2023/01/20 03:09:13;;;;;;;26.85;16.23;;;0.60;99.90;;;;;;5010581;28;20052;-72
2023/01/20 03:11:49;;;;;;;23.92;15.57;;;0.60;99.90;;;;;;5010687;28;20471;-72
2023/01/20 03:14:16;;;;;;;26.98;15.32;;;0.60;99.90;;;;;;5011648;28;20481;-72
2023/01/20 03:16:46;;;;;;;25.35;15.65;;;0.60;99.90;;;;;;5010249;28;20057;-73
2023/01/20 03:19:16;;;;;;;24.13;15.93;;;0.70;99.90;;;;;;5009513;28;20050;-72
2023/01/20 03:21:46;;;;;;;;;;;0.70;99.90;;;;;;5012114;28;20121;-72
2023/01/20 03:24:13;;;;;;;27.48;16.05;;;0.70;99.90;;;;;;5010538;28;19929;-73
2023/01/20 03:26:41;;;;;;;28.52;16.70;;;0.70;99.90;;;;;;5009127;28;20212;-72
2023/01/20 03:29:14;;;;;;;28.13;16.60;;;0.60;99.90;;;;;;5011764;28;20561;-72
2023/01/20 03:31:50;;;;;;;25.35;16.67;;;0.50;99.90;;;;;;5010885;28;20046;-72
2023/01/20 03:34:20;;;;;;;29.08;17.05;;;0.50;99.90;;;;;;5010849;28;20038;-72
2023/01/20 03:36:49;;;;;;;30.85;17.00;;;0.50;99.90;;;;;;5009596;28;20048;-74
2023/01/20 03:39:16;;;;;;;28.23;17.23;;;0.50;99.90;;;;;;5011149;28;20037;-73
2023/01/20 03:42:05;;;;;;;27.13;15.90;;;0.50;99.90;;;;;;4992545;28;20389;-73
2023/01/20 03:45:06;;;;;;;33.55;17.13;;;0.50;99.90;;;;;;5010121;28;20053;-72
2023/01/20 03:47:54;;;;;;;26.10;16.50;;;0.40;99.90;;;;;;5010255;28;20527;-72
2023/01/20 03:50:35;;;;;;;29.40;17.73;;;0.30;99.90;;;;;;5010316;28;20038;-73
2023/01/20 03:53:23;;;;;;;28.98;17.92;;;0.30;99.90;;;;;;5011667;28;20394;-72
2023/01/20 03:56:14;;;;;;;32.30;19.20;;;0.30;99.90;;;;;;5011351;28;20499;-72
2023/01/20 03:58:45;;;;;;;31.20;18.15;;;0.30;99.90;;;;;;4991571;28;20054;-72
2023/01/20 04:01:14;;;;;;;29.98;18.35;;;0.30;99.90;;;;;;5009856;28;20041;-72
2023/01/20 04:03:49;;;;;;;30.92;18.15;;;0.30;99.90;;;;;;5010163;28;20112;-74
2023/01/20 04:06:18;;;;;;;32.95;18.88;;;0.30;99.90;;;;;;4992757;28;20116;-73
2023/01/20 04:09:00;;;;;;;29.35;18.08;;;0.30;99.90;;;;;;5010223;28;20038;-72
2023/01/20 04:11:28;;;;;;;29.23;17.55;;;0.30;99.90;;;;;;4992725;28;20042;-72
2023/01/20 04:13:55;;;;;;;30.73;17.77;;;0.30;99.90;;;;;;5002884;28;20092;-72
2023/01/20 04:16:24;;;;;;;34.58;19.27;;;0.30;99.90;;;;;;5008644;28;20038;-72
2023/01/20 04:18:53;;;;;;;34.78;19.02;;;0.30;99.90;;;;;;5010445;28;20116;-72
2023/01/20 04:21:43;;;;;;;34.72;19.15;;;0.20;99.90;;;;;;5008690;28;20063;-72
2023/01/20 04:24:16;;;;;;;29.70;17.65;;;0.20;99.90;;;;;;5009750;28;20050;-72
2023/01/20 04:26:43;;;;;;;32.55;19.13;;;0.10;99.90;;;;;;5008486;28;20042;-72
2023/01/20 04:29:11;;;;;;;29.55;18.17;;;0.10;99.90;;;;;;5010317;28;20053;-72
2023/01/20 04:31:39;;;;;;;32.63;19.73;;;0.10;99.90;;;;;;5010796;28;20038;-73
2023/01/20 04:34:07;;;;;;;32.45;19.05;;;0.10;99.90;;;;;;5009085;28;20050;-72
2023/01/20 04:36:34;;;;;;;33.22;19.33;;;0.10;99.90;;;;;;5010991;28;20137;-72
2023/01/20 04:39:01;;;;;;;35.13;20.05;;;0.10;99.90;;;;;;5008384;28;20042;-72
2023/01/20 04:41:28;;;;;;;36.38;20.65;;;0.10;99.90;;;;;;5009375;28;20468;-72
2023/01/20 04:43:56;;;;;;;37.60;20.65;;;0.10;99.90;;;;;;5008936;28;20523;-72
2023/01/20 04:46:23;;;;;;;32.03;19.83;;;0.20;99.90;;;;;;5009736;28;20065;-73
2023/01/20 04:48:50;;;;;;;35.72;21.17;;;0.20;99.90;;;;;;5010320;28;20073;-73
2023/01/20 04:51:18;;;;;;;37.20;21.02;;;0.30;99.90;;;;;;5013540;28;20052;-74
2023/01/20 04:53:45;;;;;;;40.28;20.75;;;0.20;99.90;;;;;;5015192;28;20046;-73
2023/01/20 04:56:14;;;;;;;38.17;20.05;;;0.30;99.90;;;;;;5014194;28;20045;-75
2023/01/20 04:58:41;;;;;;;40.20;21.80;;;0.30;99.90;;;;;;5012699;28;20592;-73
2023/01/20 05:01:09;;;;;;;39.53;20.60;;;0.30;99.90;;;;;;5013227;28;20461;-71
2023/01/20 05:03:37;;;;;;;39.05;21.48;;;0.20;99.90;;;;;;5012463;28;20472;-71
2023/01/20 05:06:05;;;;;;;42.13;21.83;;;0.30;99.90;;;;;;4995395;28;20511;-71
2023/01/20 05:08:32;;;;;;;37.63;20.98;;;0.30;99.90;;;;;;5012091;28;20054;-72
2023/01/20 05:10:59;;;;;;;33.88;20.58;;;0.30;99.90;;;;;;5014457;28;20073;-72
2023/01/20 05:13:27;;;;;;;36.38;20.10;;;0.30;99.90;;;;;;5013606;28;20416;-71
2023/01/20 05:15:54;;;;;;;38.17;20.45;;;0.40;99.90;;;;;;5012880;28;20069;-73
2023/01/20 05:18:22;;;;;;;37.33;21.25;;;0.40;99.90;;;;;;5013713;28;20489;-72
2023/01/20 05:20:49;;;;;;;41.30;20.98;;;0.40;99.90;;;;;;5012472;28;20042;-73
2023/01/20 05:23:16;;;;;;;37.38;20.90;;;0.40;99.90;;;;;;5013685;28;20046;-73
2023/01/20 05:25:52;;;;;;;36.17;20.88;;;0.40;99.90;;;;;;5011989;28;20053;-73
2023/01/20 05:28:20;;;;;;;42.28;22.58;;;0.50;99.90;;;;;;5014341;28;20045;-73
2023/01/20 05:30:49;;;;;;;36.30;20.88;;;0.50;99.90;;;;;;5012962;28;20048;-71
2023/01/20 05:33:16;;;;;;;42.60;21.85;;;0.50;99.90;;;;;;4994606;28;20152;-71
2023/01/20 05:35:44;;;;;;;42.50;23.23;;;0.40;99.90;;;;;;5013090;28;20069;-73
2023/01/20 05:38:11;;;;;;;43.05;22.08;;;0.40;99.90;;;;;;4979337;28;20046;-72
2023/01/20 05:40:39;;;;;;;40.80;21.77;;;0.40;99.90;;;;;;4984746;28;20069;-73
2023/01/20 05:43:06;;;;;;;42.72;22.60;;;0.50;99.90;;;;;;5009455;28;20042;-72
2023/01/20 05:45:34;;;;;;;41.13;22.88;;;0.50;99.90;;;;;;4991775;28;20544;-71
2023/01/20 05:48:02;;;;;;;40.60;23.35;;;0.50;99.90;;;;;;5000713;28;20042;-74
2023/01/20 05:50:29;;;;;;;41.72;23.23;;;0.50;99.90;;;;;;5003698;28;20480;-73
2023/01/20 05:52:56;;;;;;;41.90;22.80;;;0.50;99.90;;;;;;5009997;28;20086;-73
2023/01/20 05:55:24;;;;;;;43.40;23.10;;;0.50;99.90;;;;;;5001602;28;20149;-72
2023/01/20 05:57:51;;;;;;;42.85;23.52;;;0.50;99.90;;;;;;4996918;28;20385;-71
2023/01/20 06:00:18;;;;;;;44.33;23.52;;;0.50;99.90;;;;;;5012808;28;20409;-72
2023/01/20 06:02:46;;;;;;;40.33;22.33;;;0.50;99.90;;;;;;5011558;28;20252;-72
2023/01/20 06:05:13;;;;;;;45.60;23.33;;;0.60;99.90;;;;;;5012085;28;20120;-72
2023/01/20 06:07:41;;;;;;;45.42;24.80;;;0.60;99.90;;;;;;5013216;28;20132;-71
2023/01/20 06:10:09;;;;;;;42.50;23.67;;;0.60;99.90;;;;;;5011750;28;20038;-70
2023/01/20 06:12:36;;;;;;;44.10;23.40;;;0.60;99.90;;;;;;5013373;28;20143;-70
2023/01/20 06:15:04;;;;;;;42.58;22.30;;;0.60;99.90;;;;;;5012931;28;20479;-71
2023/01/20 06:17:31;;;;;;;43.65;24.23;;;0.60;99.90;;;;;;5011745;28;20040;-70
2023/01/20 06:19:59;;;;;;;44.13;22.88;;;0.70;99.90;;;;;;5011991;28;20053;-70
2023/01/20 06:22:26;;;;;;;42.28;23.20;;;0.70;99.90;;;;;;5009578;28;20416;-71
2023/01/20 06:24:54;;;;;;;46.72;24.52;;;0.70;99.90;;;;;;5011815;28;20472;-73
2023/01/20 06:27:21;;;;;;;41.88;22.95;;;0.70;99.90;;;;;;4999438;28;20048;-71
2023/01/20 06:29:49;;;;;;;41.45;22.83;;;0.70;99.90;;;;;;5010707;28;20548;-72
2023/01/20 06:32:17;;;;;;;43.05;23.60;;;0.60;99.90;;;;;;5012821;28;20046;-73
2023/01/20 06:34:44;;;;;;;41.90;23.80;;;0.60;99.90;;;;;;4995557;28;20073;-74
2023/01/20 06:37:12;;;;;;;46.05;22.65;;;0.60;99.90;;;;;;5012620;28;20408;-71
2023/01/20 06:39:39;;;;;;;37.97;21.77;;;0.60;99.90;;;;;;5006725;28;20125;-73
2023/01/20 06:42:06;;;;;;;46.75;24.17;;;0.70;99.90;;;;;;4994509;28;20080;-73
2023/01/20 06:44:34;;;;;;;39.30;22.27;;;0.70;99.90;;;;;;5010662;28;20088;-73
2023/01/20 06:47:02;;;;;;;47.65;23.83;;;0.70;99.90;;;;;;5010340;28;20057;-73
2023/01/20 06:49:29;;;;;;;43.50;23.48;;;0.70;99.90;;;;;;5011223;28;20057;-72
2023/01/20 06:51:56;;;;;;;42.22;23.08;;;0.70;99.90;;;;;;5011406;28;20525;-72
2023/01/20 06:54:24;;;;;;;43.97;24.55;;;0.70;99.90;;;;;;5011267;28;20038;-74
2023/01/20 06:56:51;;;;;;;41.17;22.33;;;0.70;99.90;;;;;;4994547;28;20152;-71
2023/01/20 06:59:18;;;;;;;45.80;24.88;;;0.70;99.90;;;;;;5011023;28;20412;-72
2023/01/20 07:01:46;;;;;;;42.33;23.85;;;0.70;99.90;;;;;;5011124;28;20038;-73
2023/01/20 07:04:13;;;;;;;41.40;24.30;;;0.70;99.90;;;;;;5012264;28;20046;-71
2023/01/20 07:06:41;;;;;;;40.42;22.15;;;0.70;99.90;;;;;;5011217;28;20042;-73
2023/01/20 07:09:11;;;;;;;45.20;24.70;;;0.80;99.90;;;;;;5011071;28;20045;-75
2023/01/20 07:11:38;;;;;;;43.78;24.33;;;0.70;99.90;;;;;;5011838;28;20523;-74
2023/01/20 07:14:06;;;;;;;40.33;23.38;;;0.70;99.90;;;;;;5006073;28;20057;-76
2023/01/20 07:16:34;;;;;;;45.45;25.13;;;0.70;99.90;;;;;;5011062;28;20451;-76
2023/01/20 07:19:01;;;;;;;42.58;24.17;;;0.60;99.90;;;;;;5012272;28;20487;-75
2023/01/20 07:21:29;;;;;;;49.85;25.38;;;0.60;99.90;;;;;;5011771;28;20504;-75
2023/01/20 07:24:00;;;;;;;48.90;24.10;;;0.70;99.90;;;;;;5011234;28;20085;-77
2023/01/20 07:26:28;;;;;;;43.83;24.63;;;0.70;99.90;;;;;;5011581;28;20519;-78
2023/01/20 07:28:57;;;;;;;43.47;23.92;;;0.70;99.90;;;;;;5011118;28;20096;-77
2023/01/20 07:31:27;;;;;;;43.97;24.48;;;0.70;99.90;;;;;;5011929;28;20038;-76
2023/01/20 07:33:55;;;;;;;46.40;24.20;;;0.80;99.90;;;;;;5010688;28;20516;-75
2023/01/20 07:36:23;;;;;;;52.50;24.77;;;0.80;99.90;;;;;;5010614;28;20045;-76
2023/01/20 07:38:52;;;;;;;47.47;26.23;;;0.80;99.90;;;;;;4994270;28;20531;-77
2023/01/20 07:41:20;;;;;;;51.17;27.48;;;0.80;99.90;;;;;;5010288;28;20042;-77
2023/01/20 07:43:49;;;;;;;45.90;25.38;;;0.80;99.90;;;;;;5012012;28;20049;-77
2023/01/20 07:46:17;;;;;;;47.33;26.02;;;0.80;99.90;;;;;;5008107;28;20076;-75
2023/01/20 07:48:45;;;;;;;46.03;24.30;;;0.80;99.90;;;;;;5007426;28;20109;-75
2023/01/20 07:51:13;;;;;;;46.72;25.50;;;0.80;99.90;;;;;;5006685;28;20574;-77
2023/01/20 07:53:45;;;;;;;46.70;25.67;;;0.90;99.90;;;;;;5011384;28;20433;-76
2023/01/20 07:56:21;;;;;;;49.78;26.02;;;0.80;99.90;;;;;;5008352;28;20038;-74
2023/01/20 07:58:50;;;;;;;46.45;24.60;;;0.80;99.90;;;;;;4993463;28;20048;-74
2023/01/20 08:01:20;;;;;;;44.17;24.13;;;0.80;99.90;;;;;;5009712;28;20054;-75
2023/01/20 08:03:48;;;;;;;52.47;26.70;;;0.80;99.90;;;;;;5010793;28;20201;-77
2023/01/20 08:06:17;;;;;;;49.45;25.83;;;0.80;99.90;;;;;;4983009;28;20050;-77
2023/01/20 08:08:45;;;;;;;57.33;26.55;;;0.80;99.90;;;;;;5009857;28;20073;-74
2023/01/20 08:11:15;;;;;;;51.08;25.88;;;0.90;99.90;;;;;;5006322;28;20041;-76
2023/01/20 08:13:46;;;;;;;52.00;26.85;;;0.90;99.90;;;;;;4986283;28;20050;-75
2023/01/20 08:16:16;;;;;;;49.22;25.33;;;0.80;99.90;;;;;;5001279;28;20041;-75
2023/01/20 08:18:44;;;;;;;52.38;25.15;;;1.00;99.90;;;;;;4990798;28;20147;-75
2023/01/20 08:21:22;;;;;;;53.15;27.15;;;0.90;99.90;;;;;;4994088;28;20392;-75
2023/01/20 08:23:50;;;;;;;54.60;27.40;;;1.00;99.90;;;;;;4994088;28;20100;-74
2023/01/20 08:26:18;;;;;;;51.47;26.63;;;1.00;99.90;;;;;;5014956;28;20065;-78
2023/01/20 08:28:45;;;;;;;49.95;26.88;;;1.00;99.90;;;;;;5018159;28;20428;-79
2023/01/20 08:31:15;;;;;;;49.72;24.88;;;1.10;99.90;;;;;;5016777;28;20042;-78
2023/01/20 08:33:44;;;;;;;49.58;24.85;;;1.10;99.90;;;;;;5016716;28;20064;-73
2023/01/20 08:36:18;;;;;;;48.65;25.60;;;1.10;99.90;;;;;;5021627;28;20470;-75
2023/01/20 08:38:47;;;;;;;51.70;25.60;;;1.00;99.90;;;;;;5015464;28;20129;-76
2023/01/20 08:41:26;;;;;;;49.33;25.30;;;1.00;99.90;;;;;;5016124;28;20037;-76
2023/01/20 08:43:54;;;;;;;47.50;24.95;;;1.10;99.90;;;;;;5015618;28;20503;-74
2023/01/20 08:46:22;;;;;;;49.55;24.98;;;1.00;99.90;;;;;;4980848;28;20066;-75
2023/01/20 08:48:50;;;;;;;51.20;24.15;;;1.10;99.90;;;;;;4996534;28;20104;-75
2023/01/20 08:51:21;;;;;;;41.42;22.98;;;1.00;99.90;;;;;;4984772;28;20049;-74
2023/01/20 08:53:49;;;;;;;45.45;23.35;;;1.10;99.90;;;;;;5029753;28;20103;-75
2023/01/20 08:56:18;;;;;;;45.50;23.60;;;1.10;99.90;;;;;;5000772;28;20116;-74
2023/01/20 08:58:45;;;;;;;60.33;29.48;;;1.10;99.90;;;;;;4999693;28;20589;-76
2023/01/20 09:01:21;;;;;;;46.30;24.45;;;1.20;99.90;;;;;;5014526;28;20129;-75
2023/01/20 09:03:49;;;;;;;44.65;23.75;;;1.20;99.90;;;;;;5021154;28;20137;-73
2023/01/20 09:06:48;;;;;;;45.65;23.58;;;1.20;99.90;;;;;;5013747;28;20145;-74
2023/01/20 09:09:18;;;;;;;44.05;22.10;;;1.20;99.90;;;;;;5013965;28;20049;-74
2023/01/20 09:11:50;;;;;;;48.38;22.92;;;1.20;99.90;;;;;;5020849;28;20048;-74
2023/01/20 09:14:19;;;;;;;33.88;17.80;;;1.20;99.90;;;;;;5013800;28;20532;-74
2023/01/20 09:16:46;;;;;;;41.30;22.70;;;1.20;99.90;;;;;;5014527;28;20044;-75
2023/01/20 09:19:14;;;;;;;41.97;22.55;;;1.30;99.90;;;;;;5007000;28;20512;-74
2023/01/20 09:21:42;;;;;;;42.28;22.40;;;1.40;99.90;;;;;;5014515;28;20502;-74
2023/01/20 09:24:09;;;;;;;38.97;22.23;;;1.50;99.90;;;;;;5015308;28;20030;-74
2023/01/20 09:26:39;;;;;;;40.72;21.95;;;1.50;99.90;;;;;;5017352;28;20120;-75
2023/01/20 09:29:11;;;;;;;43.08;23.13;;;1.50;99.90;;;;;;5002455;28;20049;-74
2023/01/20 09:31:57;;;;;;;43.50;23.42;;;1.50;99.90;;;;;;5032599;28;20091;-76
2023/01/20 09:34:28;;;;;;;42.85;23.10;;;1.50;99.90;;;;;;5017500;28;20055;-74
2023/01/20 09:43:52;;;;;;;40.22;22.27;;;1.60;99.90;;;;;;4985726;28;20081;-77
2023/01/20 09:45:43;;;;;;;42.65;22.58;;;1.80;99.90;;;;;;5017744;28;20056;-74
2023/01/20 09:54:53;;;;;;;40.05;21.08;;;1.90;99.90;;;;;;5013408;28;20477;-75
2023/01/20 09:57:23;;;;;;;36.83;21.70;;;2.10;99.90;;;;;;5010869;28;20056;-75
2023/01/20 10:00:15;;;;;;;41.58;21.52;;;2.10;99.90;;;;;;5011837;28;20350;-75
2023/01/20 10:02:49;;;;;;;38.13;21.45;;;2.20;99.90;;;;;;4976914;28;20145;-74
2023/01/20 10:05:31;;;;;;;36.92;20.83;;;2.30;99.90;;;;;;5010969;28;20034;-74
2023/01/20 10:08:12;;;;;;;34.58;19.80;;;2.40;99.90;;;;;;5011541;28;20046;-71
2023/01/20 10:10:52;;;;;;;39.80;21.45;;;2.30;99.90;;;;;;5009257;28;20050;-71
2023/01/20 10:13:46;;;;;;;38.03;20.42;;;2.20;99.90;;;;;;5013848;28;20137;-73
2023/01/20 10:16:35;;;;;;;33.10;18.42;;;2.20;99.90;;;;;;5017630;28;20046;-71
2023/01/20 10:19:36;;;;;;;31.83;18.85;;;2.20;99.90;;;;;;4993660;28;20577;-73
2023/01/20 10:22:10;;;;;;;40.08;19.70;;;2.20;99.90;;;;;;5010117;28;20408;-74
2023/01/20 10:25:06;;;;;;;36.08;20.02;;;2.20;99.90;;;;;;5008436;28;20089;-73
2023/01/20 10:27:39;;;;;;;35.33;18.40;;;2.30;99.90;;;;;;4990053;28;20456;-74
2023/01/20 10:30:12;;;;;;;33.75;19.17;;;2.40;99.90;;;;;;5007899;28;20518;-73
2023/01/20 10:33:01;;;;;;;32.67;18.90;;;2.50;99.90;;;;;;5029817;28;20459;-73
2023/01/20 10:35:35;;;;;;;32.53;19.23;;;2.50;99.90;;;;;;4993652;28;20050;-74
2023/01/20 10:38:07;;;;;;;35.10;20.13;;;2.50;99.90;;;;;;5011972;28;20042;-73
2023/01/20 10:40:46;;;;;;;33.90;18.88;;;2.60;99.90;;;;;;4993980;28;20057;-72
2023/01/20 10:43:16;;;;;;;29.95;18.30;;;2.60;99.90;;;;;;5010490;28;20156;-71
2023/01/20 10:46:05;;;;;;;34.65;17.98;;;2.60;99.90;;;;;;4993570;28;20054;-74
2023/01/20 10:49:00;;;;;;;34.92;19.15;;;2.90;99.90;;;;;;4977743;28;20046;-72
2023/01/20 10:51:45;;;;;;;31.73;17.35;;;2.90;99.90;;;;;;5011790;28;20041;-74
2023/01/20 10:54:13;;;;;;;27.23;16.80;;;2.80;99.90;;;;;;5012958;28;20045;-73
2023/01/20 10:56:52;;;;;;;24.63;14.18;;;2.80;99.90;;;;;;5011549;28;20045;-74
2023/01/20 10:59:45;;;;;;;24.45;13.48;;;2.80;99.90;;;;;;5011165;28;20042;-73
2023/01/20 11:02:26;;;;;;;24.73;14.52;;;2.90;99.90;;;;;;5012214;28;20477;-73
2023/01/20 11:05:18;;;;;;;20.48;12.13;;;3.10;99.90;;;;;;4998721;28;20176;-73
2023/01/20 11:07:47;;;;;;;17.48;10.85;;;3.20;99.90;;;;;;5010087;28;20046;-73
2023/01/20 11:10:25;;;;;;;16.77;10.65;;;3.20;99.90;;;;;;5007234;28;20050;-73
2023/01/20 11:12:56;;;;;;;19.42;11.80;;;3.50;99.90;;;;;;5006065;28;20046;-73
2023/01/20 11:15:31;;;;;;;23.45;13.02;;;3.70;99.90;;;;;;4994896;28;20141;-73
2023/01/20 11:18:14;;;;;;;20.80;13.55;;;3.70;99.90;;;;;;5010052;28;20065;-73
2023/01/20 11:20:45;;;;;;;24.17;14.85;;;3.60;99.90;;;;;;5009393;28;20088;-73
2023/01/20 11:23:31;;;;;;;21.27;13.10;;;3.40;99.90;;;;;;5007246;28;20351;-73
2023/01/20 11:26:14;;;;;;;21.85;13.23;;;3.40;99.90;;;;;;5002256;28;20569;-76
2023/01/20 11:29:02;;;;;;;22.98;14.18;;;3.40;99.90;;;;;;5010502;28;20053;-73
2023/01/20 11:32:02;;;;;;;21.20;13.70;;;3.30;99.90;;;;;;5011363;28;20050;-71
2023/01/20 11:34:32;;;;;;;26.15;13.43;;;3.20;99.90;;;;;;5001376;28;20469;-72
2023/01/20 11:37:05;;;;;;;26.20;13.77;;;3.10;99.90;;;;;;5018139;28;20096;-71
2023/01/20 11:39:35;;;;;;;21.08;12.73;;;3.10;99.90;;;;;;4992827;28;20436;-72
2023/01/20 11:42:20;;;;;;;21.38;12.75;;;3.00;99.90;;;;;;5010946;28;20041;-72
2023/01/20 11:44:52;;;;;;;22.15;12.60;;;3.00;99.90;;;;;;5012861;28;20126;-72
2023/01/20 11:47:22;;;;;;;21.55;13.48;;;2.90;99.90;;;;;;5016657;28;20049;-70
2023/01/20 11:50:08;;;;;;;22.40;13.07;;;2.80;99.90;;;;;;5005281;28;20098;-72
2023/01/20 11:52:46;;;;;;;24.15;14.23;;;2.90;99.90;;;;;;5007744;28;20042;-73
2023/01/20 11:55:16;;;;;;;22.15;12.75;;;3.10;99.90;;;;;;5007830;28;20409;-73
2023/01/20 11:57:54;;;;;;;23.83;14.30;;;3.30;99.90;;;;;;5009908;28;20080;-74
2023/01/20 12:00:30;;;;;;;20.05;12.32;;;3.40;99.90;;;;;;5008693;28;20596;-73
2023/01/20 12:03:09;;;;;;;21.63;13.52;;;3.50;99.90;;;;;;5008850;28;20049;-73
2023/01/20 12:05:54;;;;;;;20.90;13.57;;;3.60;99.90;;;;;;5018955;28;20053;-71
2023/01/20 12:08:41;;;;;;;22.38;13.27;;;3.70;99.90;;;;;;4990478;28;20046;-72
2023/01/20 12:11:10;;;;;;;24.05;13.02;;;3.80;99.90;;;;;;4978867;28;20602;-71
2023/01/20 12:16:32;;;;;;;22.38;13.82;;;3.80;99.90;;;;;;5026883;28;20451;-72
2023/01/20 12:19:08;;;;;;;23.15;13.82;;;3.80;99.90;;;;;;5008102;28;20417;-72
2023/01/20 12:21:42;;;;;;;23.45;14.27;;;3.40;99.90;;;;;;5014310;28;20449;-73
2023/01/20 12:24:17;;;;;;;23.00;13.95;;;3.30;99.90;;;;;;5024513;28;20102;-72
2023/01/20 12:26:44;;;;;;;23.83;13.95;;;3.30;99.90;;;;;;5008295;28;20073;-72
2023/01/20 12:29:21;;;;;;;22.40;13.65;;;3.10;99.90;;;;;;5013638;28;20456;-72
2023/01/20 12:31:49;;;;;;;26.08;13.80;;;3.10;99.90;;;;;;4993460;28;20057;-71
2023/01/20 12:34:31;;;;;;;24.25;13.48;;;3.00;99.90;;;;;;5005302;28;20048;-72
2023/01/20 12:37:09;;;;;;;23.45;13.68;;;2.90;99.90;;;;;;5017412;28;20052;-74
2023/01/20 12:39:51;;;;;;;26.60;14.77;;;2.90;99.90;;;;;;5010886;28;20416;-72
2023/01/20 12:42:36;;;;;;;23.75;13.88;;;2.80;99.90;;;;;;4967333;28;20514;-72
2023/01/20 12:45:14;;;;;;;25.77;14.95;;;2.70;99.90;;;;;;5016471;28;20069;-70
2023/01/20 12:48:08;;;;;;;27.15;15.25;;;2.60;99.90;;;;;;5010308;28;20042;-72
2023/01/20 12:51:05;;;;;;;24.50;15.02;;;2.50;99.90;;;;;;5010058;28;20056;-72
2023/01/20 12:53:38;;;;;;;26.75;15.18;;;2.40;99.90;;;;;;5020128;28;20117;-72
2023/01/20 12:56:18;;;;;;;28.50;15.73;;;2.40;99.90;;;;;;4998884;28;20057;-73
2023/01/20 12:59:07;;;;;;;28.38;16.13;;;2.30;99.90;;;;;;4995633;28;20050;-74
2023/01/20 13:01:52;;;;;;;30.60;17.00;;;2.20;99.90;;;;;;4999135;28;20049;-73
2023/01/20 13:04:53;;;;;;;27.85;14.15;;;2.20;99.90;;;;;;5008254;28;20049;-73
2023/01/20 13:07:26;;;;;;;27.52;15.90;;;2.20;99.90;;;;;;5009737;28;20081;-71
2023/01/20 13:10:05;;;;;;;27.73;16.50;;;2.20;99.90;;;;;;5011020;28;20443;-72
2023/01/20 13:12:35;;;;;;;29.17;15.00;;;2.20;99.90;;;;;;5003238;28;20108;-71
2023/01/20 13:15:21;;;;;;;29.63;15.43;;;2.10;99.90;;;;;;5010762;28;20042;-70
2023/01/20 13:18:06;;;;;;;26.73;14.43;;;2.20;99.90;;;;;;5010597;28;20034;-71
2023/01/20 13:20:39;;;;;;;23.83;13.90;;;2.20;99.90;;;;;;5008280;28;20050;-71
2023/01/20 13:23:32;;;;;;;28.05;16.08;;;2.20;99.90;;;;;;5012936;28;20042;-72